createdAt,value
2022-10-25T00:00:54.109Z,1.20
2022-10-25T00:05:55.371Z,1.37
2022-10-25T00:10:56.590Z,1.20
2022-10-25T00:15:57.871Z,1.27
2022-10-25T00:26:10.896Z,1.00
2022-10-25T00:31:13.835Z,0.80
2022-10-25T00:36:19.524Z,1.10
2022-10-25T00:41:22.152Z,1.30
2022-10-25T00:46:26.138Z,1.27
2022-10-25T00:51:30.438Z,1.17
2022-10-25T00:56:33.073Z,1.00
2022-10-25T01:01:34.435Z,1.20
2022-10-25T01:06:41.105Z,1.17
2022-10-25T01:11:42.635Z,0.93
2022-10-25T01:16:59.297Z,1.50
2022-10-25T01:22:09.676Z,1.48
2022-10-25T01:27:19.452Z,1.20
2022-10-25T01:32:24.029Z,1.07
2022-10-25T01:37:37.321Z,1.30
2022-10-25T01:42:43.368Z,1.17
2022-10-25T01:47:48.798Z,1.10
2022-10-25T01:52:50.500Z,1.20
2022-10-25T01:57:51.742Z,1.13
2022-10-25T02:02:56.047Z,1.10
2022-10-25T02:08:04.510Z,1.10
2022-10-25T02:13:24.672Z,1.77
2022-10-25T02:18:28.553Z,1.80
2022-10-25T02:23:30.824Z,3.08
2022-10-25T02:28:32.628Z,2.20
2022-10-25T02:33:33.918Z,2.93
2022-10-25T02:38:35.318Z,1.80
2022-10-25T02:49:33.417Z,1.30
2022-10-25T02:54:34.669Z,1.55
2022-10-25T02:59:35.924Z,1.73
2022-10-25T03:04:37.155Z,1.00
2022-10-25T03:09:38.427Z,1.30
2022-10-25T03:14:39.676Z,1.00
2022-10-25T03:19:40.916Z,1.80
2022-10-25T03:24:42.208Z,1.50
2022-10-25T03:29:43.934Z,1.53
2022-10-25T03:34:45.164Z,1.23
2022-10-25T03:39:46.387Z,1.40
2022-10-25T03:44:47.777Z,1.60
2022-10-25T03:49:49.016Z,2.60
2022-10-25T03:54:50.339Z,2.40
2022-10-25T03:59:51.581Z,2.17
2022-10-25T04:04:52.831Z,1.90
2022-10-25T04:09:54.138Z,1.50
2022-10-25T04:14:55.398Z,1.20
2022-10-25T04:19:56.662Z,1.30
2022-10-25T04:24:57.920Z,1.55
2022-10-25T04:29:59.171Z,1.50
2022-10-25T04:35:00.433Z,1.10
2022-10-25T04:40:01.648Z,1.30
2022-10-25T04:45:02.988Z,1.67
2022-10-25T04:50:04.470Z,1.50
2022-10-25T04:55:05.852Z,1.30
2022-10-25T05:00:07.525Z,1.43
2022-10-25T05:05:08.962Z,1.50
2022-10-25T05:10:10.678Z,2.28
2022-10-25T05:15:11.920Z,2.47
2022-10-25T05:20:13.229Z,2.72
2022-10-25T05:25:14.527Z,2.80
2022-10-25T05:30:15.835Z,2.07
2022-10-25T05:35:17.072Z,2.65
2022-10-25T05:40:18.301Z,1.90
2022-10-25T05:45:19.912Z,1.70
2022-10-25T05:50:21.151Z,1.77
2022-10-25T05:55:22.418Z,1.60
2022-10-25T06:00:23.712Z,2.10
2022-10-25T06:05:24.975Z,2.00
2022-10-25T06:10:26.199Z,2.07
2022-10-25T06:15:27.455Z,3.13
2022-10-25T06:20:28.814Z,2.03
2022-10-25T06:25:30.251Z,3.07
2022-10-25T06:35:38.178Z,1.83
2022-10-25T06:40:39.428Z,1.70
2022-10-25T06:45:43.818Z,1.75
2022-10-25T06:50:48.475Z,1.23
2022-10-25T06:55:52.633Z,1.60
2022-10-25T07:00:53.996Z,1.23
2022-10-25T07:05:55.280Z,1.27
2022-10-25T07:10:56.813Z,1.43
2022-10-25T07:16:04.902Z,1.35
2022-10-25T07:21:20.178Z,1.80
2022-10-25T07:26:22.788Z,1.93
2022-10-25T07:31:25.424Z,1.45
2022-10-25T07:36:26.773Z,1.50
2022-10-25T07:41:28.046Z,1.43
2022-10-25T07:46:29.317Z,1.52
2022-10-25T07:51:30.574Z,1.73
2022-10-25T07:56:31.836Z,1.33
2022-10-25T08:01:33.114Z,1.35
2022-10-25T08:06:36.040Z,1.30
2022-10-25T08:11:37.280Z,1.20
2022-10-25T08:16:38.620Z,1.60
2022-10-25T08:21:39.876Z,1.55
2022-10-25T08:26:41.110Z,1.40
2022-10-25T08:31:42.412Z,1.70
2022-10-25T08:36:43.674Z,2.70
2022-10-25T08:41:47.795Z,1.47
2022-10-25T08:47:03.101Z,1.63
2022-10-25T08:52:05.869Z,3.70
2022-10-25T08:57:16.228Z,2.20
2022-10-25T09:02:22.109Z,1.67
2022-10-25T09:07:42.788Z,1.45
2022-10-25T09:12:48.681Z,1.70
2022-10-25T09:17:51.006Z,1.60
2022-10-25T09:23:03.084Z,3.58
2022-10-25T09:28:08.351Z,2.10
2022-10-25T09:33:11.430Z,1.83
2022-10-25T09:38:18.960Z,1.70
2022-10-25T09:43:23.094Z,2.03
2022-10-25T09:48:24.317Z,2.08
2022-10-25T09:53:25.590Z,3.10
2022-10-25T09:58:28.134Z,1.60
2022-10-25T10:03:30.977Z,2.30
2022-10-25T10:08:34.837Z,2.10
2022-10-25T10:13:40.189Z,2.53
2022-10-25T10:18:43.541Z,9.35
2022-10-25T10:23:53.038Z,2.00
2022-10-25T10:29:07.909Z,1.50
2022-10-25T10:34:22.762Z,1.55
2022-10-25T10:39:24.044Z,3.58
2022-10-25T10:44:25.315Z,1.40
2022-10-25T10:49:40.609Z,1.10
2022-10-25T10:54:46.460Z,1.90
2022-10-25T10:59:55.332Z,1.33
2022-10-25T11:04:56.810Z,2.05
2022-10-25T11:10:16.142Z,1.67
2022-10-25T11:15:17.678Z,1.33
2022-10-25T11:20:21.762Z,3.73
2022-10-25T11:25:32.203Z,1.52
2022-10-25T11:30:40.548Z,1.38
2022-10-25T11:36:02.075Z,2.27
2022-10-25T11:41:06.358Z,3.95
2022-10-25T11:46:10.750Z,2.17
2022-10-25T11:51:17.789Z,1.70
2022-10-25T11:56:19.052Z,1.20
2022-10-25T12:01:29.892Z,1.75
2022-10-25T12:06:31.187Z,1.37
2022-10-25T12:11:37.815Z,3.70
2022-10-25T12:16:40.427Z,1.35
2022-10-25T12:21:44.964Z,2.08
2022-10-25T12:26:46.696Z,2.30
2022-10-25T12:31:51.983Z,1.20
2022-10-25T12:36:57.919Z,1.45
2022-10-25T12:42:04.368Z,1.70
2022-10-25T12:47:05.644Z,3.17
2022-10-25T12:52:27.194Z,2.33
2022-10-25T12:57:48.384Z,1.80
2022-10-25T13:03:10.308Z,5.53
2022-10-25T13:08:12.301Z,1.88
2022-10-25T13:13:13.532Z,2.17
2022-10-25T13:18:32.717Z,1.43
2022-10-25T13:23:43.128Z,2.10
2022-10-25T13:28:52.271Z,2.47
2022-10-25T13:34:14.203Z,1.90
2022-10-25T13:39:17.755Z,1.65
2022-10-25T13:44:20.015Z,1.40
2022-10-25T13:49:27.510Z,2.20
2022-10-25T13:54:41.380Z,1.90
2022-10-25T13:59:45.846Z,1.67
2022-10-25T14:04:47.374Z,2.28
2022-10-25T14:09:51.883Z,2.83
2022-10-25T14:14:55.819Z,2.30
2022-10-25T14:19:58.786Z,6.60
2022-10-25T14:25:02.646Z,4.33
2022-10-25T14:30:23.282Z,2.13
2022-10-25T14:35:26.546Z,2.35
2022-10-25T14:40:30.639Z,3.20
2022-10-25T14:45:31.884Z,2.20
2022-10-25T14:50:33.154Z,2.40
2022-10-25T14:55:34.938Z,1.60
2022-10-25T15:00:36.287Z,1.57
2022-10-25T15:05:40.689Z,2.00
2022-10-25T15:10:45.137Z,2.50
2022-10-25T15:15:47.346Z,3.60
2022-10-25T15:20:49.295Z,2.35
2022-10-25T15:25:50.851Z,1.50
2022-10-25T15:31:00.034Z,1.80
2022-10-25T15:36:02.278Z,2.23
2022-10-25T15:41:03.641Z,2.15
2022-10-25T15:46:05.305Z,1.80
2022-10-25T15:51:08.522Z,2.27
2022-10-25T15:56:11.994Z,2.17
2022-10-25T16:01:13.767Z,3.85
2022-10-25T16:06:15.141Z,2.67
2022-10-25T16:11:43.733Z,2.28
2022-10-25T16:16:47.863Z,2.90
2022-10-25T16:21:49.252Z,4.13
2022-10-25T16:26:51.151Z,4.33
2022-10-25T16:31:52.736Z,4.10
2022-10-25T16:36:54.020Z,5.60
2022-10-25T16:41:58.198Z,4.27
2022-10-25T16:46:59.930Z,2.88
2022-10-25T16:52:01.263Z,3.42
2022-10-25T16:57:02.554Z,3.20
2022-10-25T17:02:04.576Z,4.47
2022-10-25T17:07:05.887Z,7.35
2022-10-25T17:12:07.396Z,3.83
2022-10-25T17:17:08.786Z,5.00
2022-10-25T17:22:10.053Z,5.93
2022-10-25T17:27:11.309Z,9.87
2022-10-25T17:32:12.563Z,4.80
2022-10-25T17:37:13.882Z,5.65
2022-10-25T17:42:15.722Z,5.83
2022-10-25T17:47:17.034Z,5.75
2022-10-25T17:52:18.316Z,8.30
2022-10-25T17:57:19.610Z,10.40
2022-10-25T18:02:21.011Z,7.82
2022-10-25T18:07:22.366Z,7.07
2022-10-25T18:12:23.736Z,6.70
2022-10-25T18:17:25.954Z,5.43
2022-10-25T18:22:27.209Z,7.47
2022-10-25T18:27:29.923Z,4.80
2022-10-25T18:32:35.229Z,6.72
2022-10-25T18:37:37.811Z,4.80
2022-10-25T18:42:39.132Z,4.10
2022-10-25T18:47:41.290Z,9.77
2022-10-25T18:52:42.571Z,6.73
2022-10-25T18:57:45.511Z,6.60
2022-10-25T19:02:51.835Z,5.75
2022-10-25T19:07:53.514Z,5.93
2022-10-25T19:12:54.774Z,5.13
2022-10-25T19:17:56.053Z,4.80
2022-10-25T19:22:58.711Z,4.10
2022-10-25T19:28:00.635Z,4.50
2022-10-25T19:33:01.926Z,5.10
2022-10-25T19:38:03.264Z,3.83
2022-10-25T19:43:04.552Z,4.47
2022-10-25T19:48:05.897Z,4.95
2022-10-25T19:53:07.137Z,4.90
2022-10-25T19:58:08.516Z,4.87
2022-10-25T20:03:09.921Z,4.57
2022-10-25T20:08:11.179Z,4.80
2022-10-25T20:13:12.472Z,4.80
2022-10-25T20:18:13.712Z,4.60
2022-10-25T20:23:15.373Z,4.60
2022-10-25T20:28:16.638Z,5.20
2022-10-25T20:33:19.839Z,4.90
2022-10-25T20:38:21.101Z,4.80
2022-10-25T20:43:22.347Z,4.50
2022-10-25T20:48:23.599Z,4.57
2022-10-25T20:53:24.851Z,4.40
2022-10-25T20:58:26.189Z,4.20
2022-10-25T21:03:28.483Z,4.68
2022-10-25T21:08:29.769Z,4.33
2022-10-25T21:13:31.998Z,4.00
2022-10-25T21:18:33.522Z,4.07
2022-10-25T21:23:35.343Z,4.40
2022-10-25T21:28:38.335Z,4.05
2022-10-25T21:33:41.565Z,4.00
2022-10-25T21:38:42.926Z,3.93
2022-10-25T21:43:45.548Z,4.13
2022-10-25T21:48:47.857Z,4.50
2022-10-25T21:53:49.202Z,4.10
2022-10-25T21:58:51.290Z,5.82
2022-10-25T22:03:52.561Z,5.37
2022-10-25T22:08:55.196Z,4.50
2022-10-25T22:13:57.727Z,4.95
2022-10-25T22:19:00.223Z,4.57
2022-10-25T22:24:01.664Z,3.67
2022-10-25T22:29:03.184Z,3.53
2022-10-25T22:34:05.186Z,3.37
2022-10-25T22:39:06.983Z,4.38
2022-10-25T22:44:08.307Z,5.05
2022-10-25T22:49:09.883Z,4.10
2022-10-25T22:54:11.236Z,3.97
2022-10-25T22:59:12.979Z,3.42
2022-10-25T23:04:14.259Z,3.33
2022-10-25T23:09:15.659Z,3.10
2022-10-25T23:14:17.597Z,3.37
2022-10-25T23:19:19.025Z,3.50
2022-10-25T23:24:20.258Z,3.20
2022-10-25T23:29:21.486Z,3.13
2022-10-25T23:39:24.996Z,5.85
2022-10-25T23:44:26.317Z,3.20
2022-10-25T23:49:27.604Z,2.73
2022-10-25T23:54:28.873Z,4.60
2022-10-25T23:59:30.132Z,3.80
